Eagle — WBP2187 — position and weather

sailwx.info

Track history (hours):
 
Tides and Currents Weather Stations Pressure Air Temp Water Temp Dewpoint Dewpoint Depression Visibility Wind Speed Wind Dir Waves Ship Positions

Eagle

Owner: Harley Marine Services, INC, SEATTLE, WA. More information available from US FCC via Universal Licensing System and Coast Guard Vessel Documentation Center.

Last reported at 2017-Nov-20 00:31 UTC. Time now 2017-Nov-20 04:08 UTC.
Position N 35°18' W 121°38'.

Length 32 m; draft 5.4 m.

Type: Towing. MMSI: 366978690.

Date/timePositionNaut miles runAvg speedWind from/ knotsBaromVisibWave heightAir tempDewpointWater temp
2017-Nov-20 00:31N 35°18' W 121°38'3 6.6
2017-Nov-20 00:01N 35°21' W 121°40'3 6.6
2017-Nov-19 23:31N 35°23' W 121°42'3 6.7
2017-Nov-19 23:01N 35°26' W 121°45'14 7.0
2017-Nov-19 21:02N 35°37' W 121°56'1 6.9
2017-Nov-19 20:55N 35°37' W 121°56'3 6.9
2017-Nov-19 20:31N 35°40' W 121°58'3 6.7
2017-Nov-19 20:01N 35°42' W 122°01'3 6.7
2017-Nov-19 19:30N 35°45' W 122°03'3 6.6
2017-Nov-19 19:01N 35°48' W 122°05'3 6.7
2017-Nov-19 18:30N 35°51' W 122°08'3 7.1
2017-Nov-19 18:00N 35°53' W 122°10'3 6.7
2017-Nov-19 17:30N 35°56' W 122°13'3 6.6
2017-Nov-19 17:01N 35°59' W 122°15'3 6.7
2017-Nov-19 16:30N 36°01' W 122°18'3 6.9
2017-Nov-19 16:00N 36°04' W 122°20'66 6.6
2017-Nov-19 06:01N 37°04' W 122°55'0 5.8
2017-Nov-19 05:59N 37°04' W 122°55'3 6.4
2017-Nov-19 05:29N 37°07' W 122°57'3 6.3
2017-Nov-19 04:59N 37°10' W 122°58'15 6.6
2017-Nov-19 02:41N 37°24' W 123°03'2 6.6
2017-Nov-19 02:23N 37°26' W 123°04'6 6.5
2017-Nov-19 01:29N 37°32' W 123°04'3 6.0
2017-Nov-19 01:01N 37°35' W 123°02'3 6.5
2017-Nov-19 00:30N 37°37' W 122°59'3 6.7
2017-Nov-19 00:01N 37°38' W 122°55'3 6.7
2017-Nov-18 23:31N 37°40' W 122°52'3 6.8
2017-Nov-18 23:01N 37°42' W 122°48'3 6.6
2017-Nov-18 22:30N 37°44' W 122°45'3 6.6
2017-Nov-18 22:00N 37°46' W 122°41'3 6.2
2017-Nov-18 21:30N 37°46' W 122°37'4 7.4
2017-Nov-18 21:00N 37°48' W 122°33'4 7.9
2017-Nov-18 20:30N 37°49' W 122°28'3 6.5
2017-Nov-18 20:01N 37°51' W 122°25'3 5.5
2017-Nov-18 19:31N 37°53' W 122°26'3 5.1
2017-Nov-18 19:00N 37°56' W 122°27'2 4.4
2017-Nov-18 18:28N 37°58' W 122°27'1 1.5
2017-Nov-18 18:00N 37°59' W 122°26'2 3.8
2017-Nov-18 17:28N 38°00' W 122°25'2 4.8
2017-Nov-18 17:01N 38°02' W 122°22'3 5.0
2017-Nov-18 16:30N 38°03' W 122°20'3 5.7
2017-Nov-18 15:59N 38°04' W 122°16'3 5.6
2017-Nov-18 15:31N 38°04' W 122°13'3 6.3
2017-Nov-18 15:01N 38°02' W 122°09'1 0.5
2017-Nov-18 13:11N 38°02' W 122°08'0 0.0
2017-Nov-18 10:17N 38°02' W 122°08'0 0.0
2017-Nov-18 09:59N 38°02' W 122°08'0 0.0
2017-Nov-18 09:23N 38°02' W 122°08'0 0.0
2017-Nov-18 08:59N 38°02' W 122°08'0 0.0
2017-Nov-18 08:23N 38°02' W 122°08'0 0.0
2017-Nov-18 07:59N 38°02' W 122°08'0 0.0
2017-Nov-18 07:11N 38°02' W 122°08'0 0.0
2017-Nov-18 06:59N 38°02' W 122°08'2 0.2
2017-Nov-17 18:55N 38°03' W 122°11'4 7.6
2017-Nov-17 18:26N 38°04' W 122°16'3 7.6
2017-Nov-17 18:00N 38°03' W 122°20'4 7.1
2017-Nov-17 17:31N 38°01' W 122°23'4 8.5
2017-Nov-17 17:00N 37°58' W 122°27'4 8.8
2017-Nov-17 16:30N 37°53' W 122°25'4 8.1
2017-Nov-17 16:00N 37°50' W 122°24'3 5.8
2017-Nov-17 15:30N 37°48' W 122°20'3 5.0
2017-Nov-17 14:58N 37°48' W 122°17'0 0.0
2017-Nov-17 14:29N 37°48' W 122°17'0 0.0
2017-Nov-17 13:58N 37°48' W 122°17'0 0.0
2017-Nov-17 13:29N 37°48' W 122°17'0 0.0
2017-Nov-17 12:58N 37°48' W 122°17'0 0.0
2017-Nov-17 12:29N 37°48' W 122°17'0 0.0
2017-Nov-17 11:59N 37°48' W 122°17'0 0.0
2017-Nov-17 11:25N 37°48' W 122°17'0 0.0
2017-Nov-17 10:58N 37°48' W 122°17'0 0.0
2017-Nov-17 10:28N 37°48' W 122°17'0 0.0
2017-Nov-17 09:58N 37°48' W 122°17'0 0.0
2017-Nov-17 09:28N 37°48' W 122°17'0 0.0
2017-Nov-17 08:58N 37°48' W 122°17'0 0.0
2017-Nov-17 08:25N 37°48' W 122°17'0 0.0
2017-Nov-17 07:58N 37°48' W 122°17'0 0.0
2017-Nov-17 07:28N 37°48' W 122°17'0 0.0
2017-Nov-17 06:58N 37°48' W 122°17'0 0.0
2017-Nov-17 06:28N 37°48' W 122°17'0 0.0
2017-Nov-17 05:52N 37°48' W 122°17'0 0.0
2017-Nov-17 05:28N 37°48' W 122°17'0 0.0
2017-Nov-17 04:58N 37°48' W 122°17'0 0.0
2017-Nov-17 04:28N 37°48' W 122°17'0 0.0
2017-Nov-17 03:58N 37°48' W 122°17'0 0.0
2017-Nov-17 03:25N 37°48' W 122°17'0 0.0
2017-Nov-17 02:58N 37°48' W 122°17'0 0.0
2017-Nov-17 02:28N 37°48' W 122°17'0 0.0
2017-Nov-17 01:58N 37°48' W 122°17'0 0.0
2017-Nov-17 01:28N 37°48' W 122°17'0 0.0
2017-Nov-17 00:58N 37°48' W 122°17'0 0.0
2017-Nov-17 00:28N 37°48' W 122°17'0 0.0
2017-Nov-16 23:58N 37°48' W 122°17'0 0.1
2017-Nov-16 23:30N 37°48' W 122°17'0 0.0
2017-Nov-16 23:00N 37°48' W 122°17'0 0.0
2017-Nov-16 22:30N 37°48' W 122°17'0 0.0
2017-Nov-16 22:00N 37°48' W 122°17'0 0.0
2017-Nov-16 21:27N 37°48' W 122°17'0 0.0
2017-Nov-16 21:00N 37°48' W 122°17'0 0.0
2017-Nov-16 20:27N 37°48' W 122°17'0 0.0
2017-Nov-16 20:00N 37°48' W 122°17'0 0.0
2017-Nov-16 19:27N 37°48' W 122°17'0 0.0
2017-Nov-16 19:00N 37°48' W 122°17'0 0.0
2017-Nov-16 18:30N 37°48' W 122°17'0 0.0
2017-Nov-16 18:00N 37°48' W 122°17'0 0.0
2017-Nov-16 17:30N 37°48' W 122°17'0 0.0
2017-Nov-16 17:00N 37°48' W 122°17'0 0.0
2017-Nov-16 16:30N 37°48' W 122°17'0 0.0
2017-Nov-16 16:00N 37°48' W 122°17'0 0.0
2017-Nov-16 15:30N 37°48' W 122°17'0 0.0
2017-Nov-16 15:00N 37°48' W 122°17'0 0.0
2017-Nov-16 14:30N 37°48' W 122°17'0 0.0
2017-Nov-16 14:00N 37°48' W 122°17'0 0.0
2017-Nov-16 13:30N 37°48' W 122°17'0 0.0
2017-Nov-16 13:00N 37°48' W 122°17'0 0.0
2017-Nov-16 12:30N 37°48' W 122°17'0 0.0
2017-Nov-16 12:00N 37°48' W 122°17'0 0.0
2017-Nov-16 11:30N 37°48' W 122°17'0 0.0
2017-Nov-16 11:00N 37°48' W 122°17'0 0.0
2017-Nov-16 10:24N 37°48' W 122°17'0 0.0
2017-Nov-16 09:45N 37°48' W 122°17'0 0.0
2017-Nov-16 09:30N 37°48' W 122°17'0 0.0
2017-Nov-16 09:00N 37°48' W 122°17'0 0.0
2017-Nov-16 08:30N 37°48' W 122°17'0 0.0
2017-Nov-16 08:00N 37°48' W 122°17'0 0.0
2017-Nov-16 07:30N 37°48' W 122°17'0 0.0
2017-Nov-16 07:00N 37°48' W 122°17'0 0.0
2017-Nov-16 06:24N 37°48' W 122°17'0 0.0
2017-Nov-16 06:00N 37°48' W 122°17'0 0.0
2017-Nov-16 05:30N 37°48' W 122°17'0 0.0
2017-Nov-16 05:00N 37°48' W 122°17'0 0.0
2017-Nov-16 04:30N 37°48' W 122°17'0 0.0
2017-Nov-16 04:00N 37°48' W 122°17'0 0.0
2017-Nov-16 03:30N 37°48' W 122°17'0 0.0
2017-Nov-16 03:00N 37°48' W 122°17'0 0.0
2017-Nov-16 02:30N 37°48' W 122°17'0 0.0
2017-Nov-16 02:00N 37°48' W 122°17'0 0.0
2017-Nov-16 01:27N 37°48' W 122°17'0 0.0
2017-Nov-16 01:00N 37°48' W 122°17'0 0.0
2017-Nov-16 00:30N 37°48' W 122°17'0 0.0
2017-Nov-15 23:57N 37°48' W 122°17'0 0.0
2017-Nov-15 23:27N 37°48' W 122°17'0 0.0
2017-Nov-15 23:00N 37°48' W 122°17'0 0.0
2017-Nov-15 22:30N 37°48' W 122°17'0 0.0
2017-Nov-15 21:57N 37°48' W 122°17'0 0.0
2017-Nov-15 21:29N 37°48' W 122°17'0 0.0
2017-Nov-15 20:59N 37°48' W 122°17'0 0.0
2017-Nov-15 20:29N 37°48' W 122°17'0 0.0
2017-Nov-15 19:56N 37°48' W 122°17'0 0.0
2017-Nov-15 19:29N 37°48' W 122°17'0 0.0
2017-Nov-15 18:59N 37°48' W 122°17'0 0.0
2017-Nov-15 18:29N 37°48' W 122°17'0 0.0
2017-Nov-15 17:59N 37°48' W 122°17'0 0.0
2017-Nov-15 17:29N 37°48' W 122°17'0 0.0
2017-Nov-15 16:59N 37°48' W 122°17'0 0.0
2017-Nov-15 16:29N 37°48' W 122°17'0 0.0
2017-Nov-15 15:59N 37°48' W 122°17'0 0.0
2017-Nov-15 15:29N 37°48' W 122°17'0 0.0
2017-Nov-15 14:59N 37°48' W 122°17'0 0.0
2017-Nov-15 14:29N 37°48' W 122°17'0 0.0
2017-Nov-15 13:59N 37°48' W 122°17'0 0.0
2017-Nov-15 13:29N 37°48' W 122°17'0 0.0
2017-Nov-15 12:59N 37°48' W 122°17'0 0.0
2017-Nov-15 12:29N 37°48' W 122°17'0 0.0
2017-Nov-15 11:59N 37°48' W 122°17'0 0.0
2017-Nov-15 11:29N 37°48' W 122°17'0 0.0
2017-Nov-15 10:59N 37°48' W 122°17'0 0.0
2017-Nov-15 10:29N 37°48' W 122°17'0 0.0
2017-Nov-15 09:59N 37°48' W 122°17'0 0.0
2017-Nov-15 09:29N 37°48' W 122°17'0 0.0
2017-Nov-15 08:59N 37°48' W 122°17'0 0.0
2017-Nov-15 08:29N 37°48' W 122°17'0 0.0
2017-Nov-15 07:59N 37°48' W 122°17'0 0.0
2017-Nov-15 07:29N 37°48' W 122°17'0 0.0
2017-Nov-15 06:59N 37°48' W 122°17'0 0.0
2017-Nov-15 06:29N 37°48' W 122°17'0 0.0
2017-Nov-15 05:59N 37°48' W 122°17'0 0.0
2017-Nov-15 05:29N 37°48' W 122°17'0 0.0
2017-Nov-15 04:59N 37°48' W 122°17'0 0.0
2017-Nov-15 04:29N 37°48' W 122°17'0 0.0
2017-Nov-15 03:59N 37°48' W 122°17'0 0.0
2017-Nov-15 03:29N 37°48' W 122°17'0 0.0
2017-Nov-15 02:59N 37°48' W 122°17'0 0.0
2017-Nov-15 02:29N 37°48' W 122°17'0 0.0
2017-Nov-15 01:56N 37°48' W 122°17'0 0.0
2017-Nov-15 01:26N 37°48' W 122°17'0 0.0
2017-Nov-15 00:59N 37°48' W 122°17'0 0.0
2017-Nov-15 00:29N 37°48' W 122°17'0 0.0
2017-Nov-14 23:59N 37°48' W 122°17'0 0.0
2017-Nov-14 23:29N 37°48' W 122°17'0 0.0
2017-Nov-14 22:59N 37°48' W 122°17'0 0.0
2017-Nov-14 22:29N 37°48' W 122°17'0 0.0
2017-Nov-14 21:59N 37°48' W 122°17'0 0.0
2017-Nov-14 21:29N 37°48' W 122°17'0 0.0
2017-Nov-14 20:59N 37°48' W 122°17'0 0.0
2017-Nov-14 20:26N 37°48' W 122°17'0 0.0
2017-Nov-14 19:59N 37°48' W 122°17'0 0.0
2017-Nov-14 19:29N 37°48' W 122°17'0 0.0
2017-Nov-14 18:56N 37°48' W 122°17'0 0.0
2017-Nov-14 18:29N 37°48' W 122°17'0 0.0
2017-Nov-14 17:59N 37°48' W 122°17'0 0.0
2017-Nov-14 17:29N 37°48' W 122°17'0 0.0
2017-Nov-14 16:56N 37°48' W 122°17'0 0.0
2017-Nov-14 16:29N 37°48' W 122°17'0 0.0
2017-Nov-14 15:59N 37°48' W 122°17'0 0.0
2017-Nov-14 15:29N 37°48' W 122°17'0 0.0
2017-Nov-14 14:59N 37°48' W 122°17'0 0.0
2017-Nov-14 14:29N 37°48' W 122°17'0 0.0
2017-Nov-14 13:59N 37°48' W 122°17'0 0.0
2017-Nov-14 13:29N 37°48' W 122°17'0 0.0
2017-Nov-14 12:59N 37°48' W 122°17'0 0.0
2017-Nov-14 12:29N 37°48' W 122°17'0 0.0
2017-Nov-14 11:59N 37°48' W 122°17'0 0.0
2017-Nov-14 11:26N 37°48' W 122°17'0 0.0
2017-Nov-14 10:59N 37°48' W 122°17'0 0.0
2017-Nov-14 10:26N 37°48' W 122°17'0 0.0
2017-Nov-14 09:59N 37°48' W 122°17'0 0.0
2017-Nov-14 09:29N 37°48' W 122°17'0 0.0
2017-Nov-14 08:58N 37°48' W 122°17'0 0.0
2017-Nov-14 08:29N 37°48' W 122°17'0 0.0
2017-Nov-14 07:58N 37°48' W 122°17'0 0.0
2017-Nov-14 07:28N 37°48' W 122°17'0 0.0
2017-Nov-14 06:58N 37°48' W 122°17'0 0.0
2017-Nov-14 06:28N 37°48' W 122°17'0 0.0
2017-Nov-14 05:58N 37°48' W 122°17'0 0.0
2017-Nov-14 05:22N 37°48' W 122°17'0 0.0
2017-Nov-14 04:58N 37°48' W 122°17'0 0.0
2017-Nov-14 04:28N 37°48' W 122°17'0 0.0
2017-Nov-14 03:58N 37°48' W 122°17'0 0.1
2017-Nov-14 03:31N 37°48' W 122°17'0 0.1
2017-Nov-14 03:01N 37°48' W 122°17'2 3.0
2017-Nov-14 02:30N 37°48' W 122°19'2 3.5
2017-Nov-14 02:00N 37°47' W 122°21'2 3.6
2017-Nov-14 01:30N 37°48' W 122°23'4 8.0
2017-Nov-14 01:00N 37°49' W 122°28'4 8.5
2017-Nov-14 00:31N 37°47' W 122°33'3 6.5
2017-Nov-14 00:00N 37°46' W 122°37'15 7.8
2017-Nov-13 22:06N 37°37' W 122°52'1 8.3
2017-Nov-13 22:00N 37°37' W 122°53'160 8.0
2017-Nov-13 01:58N 35°11' W 121°32'4 8.7
2017-Nov-13 01:30N 35°08' W 121°28'4 8.5
2017-Nov-13 01:00N 35°05' W 121°25'4 8.3
2017-Nov-13 00:30N 35°01' W 121°22'4 8.3
2017-Nov-13 00:00N 34°58' W 121°19'5 8.4
2017-Nov-12 23:26N 34°54' W 121°16'3 8.1
2017-Nov-12 23:01N 34°51' W 121°13'4 8.1
2017-Nov-12 22:30N 34°48' W 121°10'4 7.9
2017-Nov-12 22:01N 34°45' W 121°08'4 7.8
2017-Nov-12 21:30N 34°42' W 121°04'4 7.5
2017-Nov-12 21:01N 34°39' W 121°02'4 7.3
2017-Nov-12 20:30N 34°36' W 120°60'3 7.0
2017-Nov-12 20:01N 34°33' W 120°57'3 6.9
2017-Nov-12 19:31N 34°30' W 120°55'4 7.0
2017-Nov-12 19:01N 34°27' W 120°52'4 6.9
2017-Nov-12 18:30N 34°26' W 120°48'4 7.1
2017-Nov-12 18:00N 34°25' W 120°44'5 7.3
2017-Nov-12 17:20N 34°23' W 120°38'2 7.1
2017-Nov-12 17:00N 34°23' W 120°36'4 7.7
2017-Nov-12 16:28N 34°22' W 120°31'4 7.6
2017-Nov-12 16:01N 34°21' W 120°27'4 7.8
2017-Nov-12 15:30N 34°20' W 120°22'4 8.1
2017-Nov-12 14:58N 34°19' W 120°17'4 7.9
2017-Nov-12 14:30N 34°18' W 120°13'4 8.0
2017-Nov-12 14:01N 34°17' W 120°08'4 8.1
2017-Nov-12 13:30N 34°16' W 120°03'4 8.0
2017-Nov-12 13:00N 34°14' W 119°59'4 8.0
2017-Nov-12 12:30N 34°13' W 119°54'4 7.9
2017-Nov-12 12:00N 34°12' W 119°49'4 8.0
2017-Nov-12 11:28N 34°11' W 119°44'4 8.3
2017-Nov-12 11:00N 34°10' W 119°40'4 8.1
2017-Nov-12 10:28N 34°09' W 119°35'4 8.2
2017-Nov-12 10:00N 34°08' W 119°30'4 8.1
2017-Nov-12 09:29N 34°07' W 119°25'4 7.7
2017-Nov-12 09:00N 34°06' W 119°21'4 7.8
2017-Nov-12 08:31N 34°05' W 119°17'4 8.1
2017-Nov-12 08:00N 34°03' W 119°12'4 8.4
2017-Nov-12 07:31N 34°01' W 119°08'4 8.2
2017-Nov-12 07:01N 33°59' W 119°04'4 8.0
2017-Nov-12 06:30N 33°57' W 118°59'4 8.0
2017-Nov-12 05:58N 33°55' W 118°55'4 7.9
2017-Nov-12 05:30N 33°53' W 118°51'4 7.8
2017-Nov-12 05:00N 33°51' W 118°47'4 7.8
2017-Nov-12 04:31N 33°49' W 118°43'4 7.8
2017-Nov-12 04:00N 33°47' W 118°39'8 7.8
2017-Nov-12 03:01N 33°44' W 118°31'0 8.3
2017-Nov-12 03:00N 33°43' W 118°31'4 7.5
2017-Nov-12 02:25N 33°41' W 118°26'  
Track history (hours):
 
Tides and Currents Weather Stations Pressure Air Temp Water Temp Dewpoint Dewpoint Depression Visibility Wind Speed Wind Dir Waves Ship Positions

Eagle

Owner: Harley Marine Services, INC, SEATTLE, WA. More information available from US FCC via Universal Licensing System and Coast Guard Vessel Documentation Center.

Last reported at 2017-Nov-20 00:31 UTC. Time now 2017-Nov-20 04:08 UTC.
Position N 35°18' W 121°38'.

Length 32 m; draft 5.4 m.

Type: Towing. MMSI: 366978690.

Date/timePositionNaut miles runAvg speedWind from/ knotsBaromVisibWave heightAir tempDewpointWater temp
2017-Nov-20 00:31N 35°18' W 121°38'3 6.6
2017-Nov-20 00:01N 35°21' W 121°40'3 6.6
2017-Nov-19 23:31N 35°23' W 121°42'3 6.7
2017-Nov-19 23:01N 35°26' W 121°45'14 7.0
2017-Nov-19 21:02N 35°37' W 121°56'1 6.9
2017-Nov-19 20:55N 35°37' W 121°56'3 6.9
2017-Nov-19 20:31N 35°40' W 121°58'3 6.7
2017-Nov-19 20:01N 35°42' W 122°01'3 6.7
2017-Nov-19 19:30N 35°45' W 122°03'3 6.6
2017-Nov-19 19:01N 35°48' W 122°05'3 6.7
2017-Nov-19 18:30N 35°51' W 122°08'3 7.1
2017-Nov-19 18:00N 35°53' W 122°10'3 6.7
2017-Nov-19 17:30N 35°56' W 122°13'3 6.6
2017-Nov-19 17:01N 35°59' W 122°15'3 6.7
2017-Nov-19 16:30N 36°01' W 122°18'3 6.9
2017-Nov-19 16:00N 36°04' W 122°20'66 6.6
2017-Nov-19 06:01N 37°04' W 122°55'0 5.8
2017-Nov-19 05:59N 37°04' W 122°55'3 6.4
2017-Nov-19 05:29N 37°07' W 122°57'3 6.3
2017-Nov-19 04:59N 37°10' W 122°58'15 6.6
2017-Nov-19 02:41N 37°24' W 123°03'2 6.6
2017-Nov-19 02:23N 37°26' W 123°04'6 6.5
2017-Nov-19 01:29N 37°32' W 123°04'3 6.0
2017-Nov-19 01:01N 37°35' W 123°02'3 6.5
2017-Nov-19 00:30N 37°37' W 122°59'3 6.7
2017-Nov-19 00:01N 37°38' W 122°55'3 6.7
2017-Nov-18 23:31N 37°40' W 122°52'3 6.8
2017-Nov-18 23:01N 37°42' W 122°48'3 6.6
2017-Nov-18 22:30N 37°44' W 122°45'3 6.6
2017-Nov-18 22:00N 37°46' W 122°41'3 6.2
2017-Nov-18 21:30N 37°46' W 122°37'4 7.4
2017-Nov-18 21:00N 37°48' W 122°33'4 7.9
2017-Nov-18 20:30N 37°49' W 122°28'3 6.5
2017-Nov-18 20:01N 37°51' W 122°25'3 5.5
2017-Nov-18 19:31N 37°53' W 122°26'3 5.1
2017-Nov-18 19:00N 37°56' W 122°27'2 4.4
2017-Nov-18 18:28N 37°58' W 122°27'1 1.5
2017-Nov-18 18:00N 37°59' W 122°26'2 3.8
2017-Nov-18 17:28N 38°00' W 122°25'2 4.8
2017-Nov-18 17:01N 38°02' W 122°22'3 5.0
2017-Nov-18 16:30N 38°03' W 122°20'3 5.7
2017-Nov-18 15:59N 38°04' W 122°16'3 5.6
2017-Nov-18 15:31N 38°04' W 122°13'3 6.3
2017-Nov-18 15:01N 38°02' W 122°09'1 0.5
2017-Nov-18 13:11N 38°02' W 122°08'0 0.0
2017-Nov-18 10:17N 38°02' W 122°08'0 0.0
2017-Nov-18 09:59N 38°02' W 122°08'0 0.0
2017-Nov-18 09:23N 38°02' W 122°08'0 0.0
2017-Nov-18 08:59N 38°02' W 122°08'0 0.0
2017-Nov-18 08:23N 38°02' W 122°08'0 0.0
2017-Nov-18 07:59N 38°02' W 122°08'0 0.0
2017-Nov-18 07:11N 38°02' W 122°08'0 0.0
2017-Nov-18 06:59N 38°02' W 122°08'2 0.2
2017-Nov-17 18:55N 38°03' W 122°11'4 7.6
2017-Nov-17 18:26N 38°04' W 122°16'3 7.6
2017-Nov-17 18:00N 38°03' W 122°20'4 7.1
2017-Nov-17 17:31N 38°01' W 122°23'4 8.5
2017-Nov-17 17:00N 37°58' W 122°27'4 8.8
2017-Nov-17 16:30N 37°53' W 122°25'4 8.1
2017-Nov-17 16:00N 37°50' W 122°24'3 5.8
2017-Nov-17 15:30N 37°48' W 122°20'3 5.0
2017-Nov-17 14:58N 37°48' W 122°17'0 0.0
2017-Nov-17 14:29N 37°48' W 122°17'0 0.0
2017-Nov-17 13:58N 37°48' W 122°17'0 0.0
2017-Nov-17 13:29N 37°48' W 122°17'0 0.0
2017-Nov-17 12:58N 37°48' W 122°17'0 0.0
2017-Nov-17 12:29N 37°48' W 122°17'0 0.0
2017-Nov-17 11:59N 37°48' W 122°17'0 0.0
2017-Nov-17 11:25N 37°48' W 122°17'0 0.0
2017-Nov-17 10:58N 37°48' W 122°17'0 0.0
2017-Nov-17 10:28N 37°48' W 122°17'0 0.0
2017-Nov-17 09:58N 37°48' W 122°17'0 0.0
2017-Nov-17 09:28N 37°48' W 122°17'0 0.0
2017-Nov-17 08:58N 37°48' W 122°17'0 0.0
2017-Nov-17 08:25N 37°48' W 122°17'0 0.0
2017-Nov-17 07:58N 37°48' W 122°17'0 0.0
2017-Nov-17 07:28N 37°48' W 122°17'0 0.0
2017-Nov-17 06:58N 37°48' W 122°17'0 0.0
2017-Nov-17 06:28N 37°48' W 122°17'0 0.0
2017-Nov-17 05:52N 37°48' W 122°17'0 0.0
2017-Nov-17 05:28N 37°48' W 122°17'0 0.0
2017-Nov-17 04:58N 37°48' W 122°17'0 0.0
2017-Nov-17 04:28N 37°48' W 122°17'0 0.0
2017-Nov-17 03:58N 37°48' W 122°17'0 0.0
2017-Nov-17 03:25N 37°48' W 122°17'0 0.0
2017-Nov-17 02:58N 37°48' W 122°17'0 0.0
2017-Nov-17 02:28N 37°48' W 122°17'0 0.0
2017-Nov-17 01:58N 37°48' W 122°17'0 0.0
2017-Nov-17 01:28N 37°48' W 122°17'0 0.0
2017-Nov-17 00:58N 37°48' W 122°17'0 0.0
2017-Nov-17 00:28N 37°48' W 122°17'0 0.0
2017-Nov-16 23:58N 37°48' W 122°17'0 0.1
2017-Nov-16 23:30N 37°48' W 122°17'0 0.0
2017-Nov-16 23:00N 37°48' W 122°17'0 0.0
2017-Nov-16 22:30N 37°48' W 122°17'0 0.0
2017-Nov-16 22:00N 37°48' W 122°17'0 0.0
2017-Nov-16 21:27N 37°48' W 122°17'0 0.0
2017-Nov-16 21:00N 37°48' W 122°17'0 0.0
2017-Nov-16 20:27N 37°48' W 122°17'0 0.0
2017-Nov-16 20:00N 37°48' W 122°17'0 0.0
2017-Nov-16 19:27N 37°48' W 122°17'0 0.0
2017-Nov-16 19:00N 37°48' W 122°17'0 0.0
2017-Nov-16 18:30N 37°48' W 122°17'0 0.0
2017-Nov-16 18:00N 37°48' W 122°17'0 0.0
2017-Nov-16 17:30N 37°48' W 122°17'0 0.0
2017-Nov-16 17:00N 37°48' W 122°17'0 0.0
2017-Nov-16 16:30N 37°48' W 122°17'0 0.0
2017-Nov-16 16:00N 37°48' W 122°17'0 0.0
2017-Nov-16 15:30N 37°48' W 122°17'0 0.0
2017-Nov-16 15:00N 37°48' W 122°17'0 0.0
2017-Nov-16 14:30N 37°48' W 122°17'0 0.0
2017-Nov-16 14:00N 37°48' W 122°17'0 0.0
2017-Nov-16 13:30N 37°48' W 122°17'0 0.0
2017-Nov-16 13:00N 37°48' W 122°17'0 0.0
2017-Nov-16 12:30N 37°48' W 122°17'0 0.0
2017-Nov-16 12:00N 37°48' W 122°17'0 0.0
2017-Nov-16 11:30N 37°48' W 122°17'0 0.0
2017-Nov-16 11:00N 37°48' W 122°17'0 0.0
2017-Nov-16 10:24N 37°48' W 122°17'0 0.0
2017-Nov-16 09:45N 37°48' W 122°17'0 0.0
2017-Nov-16 09:30N 37°48' W 122°17'0 0.0
2017-Nov-16 09:00N 37°48' W 122°17'0 0.0
2017-Nov-16 08:30N 37°48' W 122°17'0 0.0
2017-Nov-16 08:00N 37°48' W 122°17'0 0.0
2017-Nov-16 07:30N 37°48' W 122°17'0 0.0
2017-Nov-16 07:00N 37°48' W 122°17'0 0.0
2017-Nov-16 06:24N 37°48' W 122°17'0 0.0
2017-Nov-16 06:00N 37°48' W 122°17'0 0.0
2017-Nov-16 05:30N 37°48' W 122°17'0 0.0
2017-Nov-16 05:00N 37°48' W 122°17'0 0.0
2017-Nov-16 04:30N 37°48' W 122°17'0 0.0
2017-Nov-16 04:00N 37°48' W 122°17'0 0.0
2017-Nov-16 03:30N 37°48' W 122°17'0 0.0
2017-Nov-16 03:00N 37°48' W 122°17'0 0.0
2017-Nov-16 02:30N 37°48' W 122°17'0 0.0
2017-Nov-16 02:00N 37°48' W 122°17'0 0.0
2017-Nov-16 01:27N 37°48' W 122°17'0 0.0
2017-Nov-16 01:00N 37°48' W 122°17'0 0.0
2017-Nov-16 00:30N 37°48' W 122°17'0 0.0
2017-Nov-15 23:57N 37°48' W 122°17'0 0.0
2017-Nov-15 23:27N 37°48' W 122°17'0 0.0
2017-Nov-15 23:00N 37°48' W 122°17'0 0.0
2017-Nov-15 22:30N 37°48' W 122°17'0 0.0
2017-Nov-15 21:57N 37°48' W 122°17'0 0.0
2017-Nov-15 21:29N 37°48' W 122°17'0 0.0
2017-Nov-15 20:59N 37°48' W 122°17'0 0.0
2017-Nov-15 20:29N 37°48' W 122°17'0 0.0
2017-Nov-15 19:56N 37°48' W 122°17'0 0.0
2017-Nov-15 19:29N 37°48' W 122°17'0 0.0
2017-Nov-15 18:59N 37°48' W 122°17'0 0.0
2017-Nov-15 18:29N 37°48' W 122°17'0 0.0
2017-Nov-15 17:59N 37°48' W 122°17'0 0.0
2017-Nov-15 17:29N 37°48' W 122°17'0 0.0
2017-Nov-15 16:59N 37°48' W 122°17'0 0.0
2017-Nov-15 16:29N 37°48' W 122°17'0 0.0
2017-Nov-15 15:59N 37°48' W 122°17'0 0.0
2017-Nov-15 15:29N 37°48' W 122°17'0 0.0
2017-Nov-15 14:59N 37°48' W 122°17'0 0.0
2017-Nov-15 14:29N 37°48' W 122°17'0 0.0
2017-Nov-15 13:59N 37°48' W 122°17'0 0.0
2017-Nov-15 13:29N 37°48' W 122°17'0 0.0
2017-Nov-15 12:59N 37°48' W 122°17'0 0.0
2017-Nov-15 12:29N 37°48' W 122°17'0 0.0
2017-Nov-15 11:59N 37°48' W 122°17'0 0.0
2017-Nov-15 11:29N 37°48' W 122°17'0 0.0
2017-Nov-15 10:59N 37°48' W 122°17'0 0.0
2017-Nov-15 10:29N 37°48' W 122°17'0 0.0
2017-Nov-15 09:59N 37°48' W 122°17'0 0.0
2017-Nov-15 09:29N 37°48' W 122°17'0 0.0
2017-Nov-15 08:59N 37°48' W 122°17'0 0.0
2017-Nov-15 08:29N 37°48' W 122°17'0 0.0
2017-Nov-15 07:59N 37°48' W 122°17'0 0.0
2017-Nov-15 07:29N 37°48' W 122°17'0 0.0
2017-Nov-15 06:59N 37°48' W 122°17'0 0.0
2017-Nov-15 06:29N 37°48' W 122°17'0 0.0
2017-Nov-15 05:59N 37°48' W 122°17'0 0.0
2017-Nov-15 05:29N 37°48' W 122°17'0 0.0
2017-Nov-15 04:59N 37°48' W 122°17'0 0.0
2017-Nov-15 04:29N 37°48' W 122°17'0 0.0
2017-Nov-15 03:59N 37°48' W 122°17'0 0.0
2017-Nov-15 03:29N 37°48' W 122°17'0 0.0
2017-Nov-15 02:59N 37°48' W 122°17'0 0.0
2017-Nov-15 02:29N 37°48' W 122°17'0 0.0
2017-Nov-15 01:56N 37°48' W 122°17'0 0.0
2017-Nov-15 01:26N 37°48' W 122°17'0 0.0
2017-Nov-15 00:59N 37°48' W 122°17'0 0.0
2017-Nov-15 00:29N 37°48' W 122°17'0 0.0
2017-Nov-14 23:59N 37°48' W 122°17'0 0.0
2017-Nov-14 23:29N 37°48' W 122°17'0 0.0
2017-Nov-14 22:59N 37°48' W 122°17'0 0.0
2017-Nov-14 22:29N 37°48' W 122°17'0 0.0
2017-Nov-14 21:59N 37°48' W 122°17'0 0.0
2017-Nov-14 21:29N 37°48' W 122°17'0 0.0
2017-Nov-14 20:59N 37°48' W 122°17'0 0.0
2017-Nov-14 20:26N 37°48' W 122°17'0 0.0
2017-Nov-14 19:59N 37°48' W 122°17'0 0.0
2017-Nov-14 19:29N 37°48' W 122°17'0 0.0
2017-Nov-14 18:56N 37°48' W 122°17'0 0.0
2017-Nov-14 18:29N 37°48' W 122°17'0 0.0
2017-Nov-14 17:59N 37°48' W 122°17'0 0.0
2017-Nov-14 17:29N 37°48' W 122°17'0 0.0
2017-Nov-14 16:56N 37°48' W 122°17'0 0.0
2017-Nov-14 16:29N 37°48' W 122°17'0 0.0
2017-Nov-14 15:59N 37°48' W 122°17'0 0.0
2017-Nov-14 15:29N 37°48' W 122°17'0 0.0
2017-Nov-14 14:59N 37°48' W 122°17'0 0.0
2017-Nov-14 14:29N 37°48' W 122°17'0 0.0
2017-Nov-14 13:59N 37°48' W 122°17'0 0.0
2017-Nov-14 13:29N 37°48' W 122°17'0 0.0
2017-Nov-14 12:59N 37°48' W 122°17'0 0.0
2017-Nov-14 12:29N 37°48' W 122°17'0 0.0
2017-Nov-14 11:59N 37°48' W 122°17'0 0.0
2017-Nov-14 11:26N 37°48' W 122°17'0 0.0
2017-Nov-14 10:59N 37°48' W 122°17'0 0.0
2017-Nov-14 10:26N 37°48' W 122°17'0 0.0
2017-Nov-14 09:59N 37°48' W 122°17'0 0.0
2017-Nov-14 09:29N 37°48' W 122°17'0 0.0
2017-Nov-14 08:58N 37°48' W 122°17'0 0.0
2017-Nov-14 08:29N 37°48' W 122°17'0 0.0
2017-Nov-14 07:58N 37°48' W 122°17'0 0.0
2017-Nov-14 07:28N 37°48' W 122°17'0 0.0
2017-Nov-14 06:58N 37°48' W 122°17'0 0.0
2017-Nov-14 06:28N 37°48' W 122°17'0 0.0
2017-Nov-14 05:58N 37°48' W 122°17'0 0.0
2017-Nov-14 05:22N 37°48' W 122°17'0 0.0
2017-Nov-14 04:58N 37°48' W 122°17'0 0.0
2017-Nov-14 04:28N 37°48' W 122°17'0 0.0
2017-Nov-14 03:58N 37°48' W 122°17'0 0.1
2017-Nov-14 03:31N 37°48' W 122°17'0 0.1
2017-Nov-14 03:01N 37°48' W 122°17'2 3.0
2017-Nov-14 02:30N 37°48' W 122°19'2 3.5
2017-Nov-14 02:00N 37°47' W 122°21'2 3.6
2017-Nov-14 01:30N 37°48' W 122°23'4 8.0
2017-Nov-14 01:00N 37°49' W 122°28'4 8.5
2017-Nov-14 00:31N 37°47' W 122°33'3 6.5
2017-Nov-14 00:00N 37°46' W 122°37'15 7.8
2017-Nov-13 22:06N 37°37' W 122°52'1 8.3
2017-Nov-13 22:00N 37°37' W 122°53'160 8.0
2017-Nov-13 01:58N 35°11' W 121°32'4 8.7
2017-Nov-13 01:30N 35°08' W 121°28'4 8.5
2017-Nov-13 01:00N 35°05' W 121°25'4 8.3
2017-Nov-13 00:30N 35°01' W 121°22'4 8.3
2017-Nov-13 00:00N 34°58' W 121°19'5 8.4
2017-Nov-12 23:26N 34°54' W 121°16'3 8.1
2017-Nov-12 23:01N 34°51' W 121°13'4 8.1
2017-Nov-12 22:30N 34°48' W 121°10'4 7.9
2017-Nov-12 22:01N 34°45' W 121°08'4 7.8
2017-Nov-12 21:30N 34°42' W 121°04'4 7.5
2017-Nov-12 21:01N 34°39' W 121°02'4 7.3
2017-Nov-12 20:30N 34°36' W 120°60'3 7.0
2017-Nov-12 20:01N 34°33' W 120°57'3 6.9
2017-Nov-12 19:31N 34°30' W 120°55'4 7.0
2017-Nov-12 19:01N 34°27' W 120°52'4 6.9
2017-Nov-12 18:30N 34°26' W 120°48'4 7.1
2017-Nov-12 18:00N 34°25' W 120°44'5 7.3
2017-Nov-12 17:20N 34°23' W 120°38'2 7.1
2017-Nov-12 17:00N 34°23' W 120°36'4 7.7
2017-Nov-12 16:28N 34°22' W 120°31'4 7.6
2017-Nov-12 16:01N 34°21' W 120°27'4 7.8
2017-Nov-12 15:30N 34°20' W 120°22'4 8.1
2017-Nov-12 14:58N 34°19' W 120°17'4 7.9
2017-Nov-12 14:30N 34°18' W 120°13'4 8.0
2017-Nov-12 14:01N 34°17' W 120°08'4 8.1
2017-Nov-12 13:30N 34°16' W 120°03'4 8.0
2017-Nov-12 13:00N 34°14' W 119°59'4 8.0
2017-Nov-12 12:30N 34°13' W 119°54'4 7.9
2017-Nov-12 12:00N 34°12' W 119°49'4 8.0
2017-Nov-12 11:28N 34°11' W 119°44'4 8.3
2017-Nov-12 11:00N 34°10' W 119°40'4 8.1
2017-Nov-12 10:28N 34°09' W 119°35'4 8.2
2017-Nov-12 10:00N 34°08' W 119°30'4 8.1
2017-Nov-12 09:29N 34°07' W 119°25'4 7.7
2017-Nov-12 09:00N 34°06' W 119°21'4 7.8
2017-Nov-12 08:31N 34°05' W 119°17'4 8.1
2017-Nov-12 08:00N 34°03' W 119°12'4 8.4
2017-Nov-12 07:31N 34°01' W 119°08'4 8.2
2017-Nov-12 07:01N 33°59' W 119°04'4 8.0
2017-Nov-12 06:30N 33°57' W 118°59'4 8.0
2017-Nov-12 05:58N 33°55' W 118°55'4 7.9
2017-Nov-12 05:30N 33°53' W 118°51'4 7.8
2017-Nov-12 05:00N 33°51' W 118°47'4 7.8
2017-Nov-12 04:31N 33°49' W 118°43'4 7.8
2017-Nov-12 04:00N 33°47' W 118°39'8 7.8
2017-Nov-12 03:01N 33°44' W 118°31'0 8.3
2017-Nov-12 03:00N 33°43' W 118°31'4 7.5
2017-Nov-12 02:25N 33°41' W 118°26'  

Dump ship's entire track history